createdAt,value
2019-04-23T00:00:29.346Z,51.5938
2019-04-23T00:01:58.376Z,51.2917
2019-04-23T00:02:52.427Z,51.3054
2019-04-23T00:03:51.609Z,50.8705
2019-04-23T00:04:59.736Z,50.8751
2019-04-23T00:06:19.028Z,50.8888
2019-04-23T00:07:44.349Z,51.1437
2019-04-23T00:08:39.597Z,51.1772
2019-04-23T00:09:39.877Z,51.4549
2019-04-23T00:10:43.036Z,51.4382
2019-04-23T00:11:51.414Z,51.7220
2019-04-23T00:14:15.162Z,51.9127
2019-04-23T00:15:35.632Z,52.2744
2019-04-23T00:16:26.492Z,52.4025
2019-04-23T00:17:37.351Z,52.2988
2019-04-23T00:18:42.658Z,51.6304
2019-04-23T00:19:50.228Z,51.5694
2019-04-23T00:20:57.846Z,51.5190
2019-04-23T00:22:11.000Z,51.8410
2019-04-23T00:23:11.056Z,52.3888
2019-04-23T00:24:28.215Z,52.4712
2019-04-23T00:25:45.026Z,52.8435
2019-04-23T00:26:36.600Z,53.1762
2019-04-23T00:27:51.825Z,53.7911
2019-04-23T00:28:58.892Z,54.0337
2019-04-23T00:31:13.320Z,54.5190
2019-04-23T00:32:23.139Z,54.8882
2019-04-23T00:33:25.607Z,55.0546
2019-04-23T00:34:36.152Z,55.3048
2019-04-23T00:35:44.079Z,55.5200
2019-04-23T00:36:51.509Z,55.8511
2019-04-23T00:37:59.981Z,56.0937
2019-04-23T00:39:06.280Z,56.1624
2019-04-23T00:40:10.836Z,56.4218
2019-04-23T00:41:25.352Z,56.0006
2019-04-23T00:42:36.797Z,55.4070
2019-04-23T00:43:35.924Z,55.4971
2019-04-23T00:44:46.263Z,55.1720
2019-04-23T00:45:53.526Z,55.4788
2019-04-23T00:47:06.977Z,55.5016
2019-04-23T00:48:17.086Z,55.3552
2019-04-23T00:49:21.222Z,55.7046
2019-04-23T00:50:48.011Z,55.9060
2019-04-23T00:51:33.093Z,56.1791
2019-04-23T00:52:38.884Z,56.5744
2019-04-23T00:53:43.917Z,57.2091
2019-04-23T00:55:04.366Z,57.0779
2019-04-23T00:56:19.032Z,57.2290
2019-04-23T00:57:22.592Z,57.3327
2019-04-23T00:59:27.828Z,57.4670
2019-04-23T01:00:41.973Z,57.4121
2019-04-23T01:01:49.581Z,57.8653
2019-04-23T01:02:53.219Z,57.7264
2019-04-23T01:04:02.251Z,57.2976
2019-04-23T01:05:14.834Z,57.3465
2019-04-23T01:06:19.356Z,57.0077
2019-04-23T01:07:24.275Z,57.1862
2019-04-23T01:08:31.764Z,57.0169
2019-04-23T01:09:49.244Z,57.2229
2019-04-23T01:10:52.282Z,57.3068
2019-04-23T01:12:03.088Z,57.5158
2019-04-23T01:13:08.868Z,57.4578
2019-04-23T01:14:15.803Z,57.3571
2019-04-23T01:15:26.254Z,57.6638
2019-04-23T01:16:28.278Z,57.7173
2019-04-23T01:17:39.852Z,57.6913
2019-04-23T01:19:49.515Z,57.7737
2019-04-23T01:20:53.521Z,57.8088
2019-04-23T01:21:47.512Z,57.4853
2019-04-23T01:22:50.907Z,57.4990
2019-04-23T01:23:59.833Z,56.9360
2019-04-23T01:25:11.041Z,57.1038
2019-04-23T01:26:30.855Z,57.0779
2019-04-23T01:27:55.836Z,56.7605
2019-04-23T01:28:57.415Z,56.8215
2019-04-23T01:30:04.742Z,56.8536
2019-04-23T01:31:09.236Z,56.6735
2019-04-23T01:32:18.753Z,56.4324
2019-04-23T01:33:29.628Z,56.6110
2019-04-23T01:34:31.282Z,57.0916
2019-04-23T01:35:36.426Z,57.4624
2019-04-23T01:36:46.458Z,57.6913
2019-04-23T01:37:55.675Z,58.0514
2019-04-23T01:39:00.239Z,58.0880
2019-04-23T01:40:12.135Z,58.1430
2019-04-23T01:41:20.204Z,58.3917
2019-04-23T01:42:38.876Z,58.3719
2019-04-23T01:43:36.534Z,58.0392
2019-04-23T01:44:50.390Z,58.4771
2019-04-23T01:45:40.944Z,58.2773
2019-04-23T01:47:00.862Z,57.6547
2019-04-23T01:48:17.875Z,58.1582
2019-04-23T01:49:18.366Z,57.7081
2019-04-23T01:51:34.460Z,57.9248
2019-04-23T01:52:50.567Z,58.3368
2019-04-23T01:53:49.577Z,58.3398
2019-04-23T01:54:54.958Z,58.7106
2019-04-23T01:56:20.392Z,59.0036
2019-04-23T01:57:16.783Z,58.9441
2019-04-23T01:58:37.039Z,59.2691
2019-04-23T01:59:24.501Z,59.5804
2019-04-23T02:00:35.563Z,59.5453
2019-04-23T02:01:47.589Z,59.4583
2019-04-23T02:02:57.610Z,59.7086
2019-04-23T02:04:03.557Z,59.7559
2019-04-23T02:06:16.646Z,59.2752
2019-04-23T02:07:29.564Z,59.4568
2019-04-23T02:08:28.364Z,59.3118
2019-04-23T02:09:43.490Z,58.9639
2019-04-23T02:10:53.633Z,58.4741
2019-04-23T02:11:57.759Z,58.4009
2019-04-23T02:15:24.994Z,57.3205
2019-04-23T02:16:32.776Z,57.2381
2019-04-23T02:17:38.639Z,57.0672
2019-04-23T02:18:44.152Z,57.3388
2019-04-23T02:19:51.753Z,57.4609
2019-04-23T02:20:59.503Z,57.5357
2019-04-23T02:22:05.022Z,57.7050
2019-04-23T02:23:19.878Z,58.2254
2019-04-23T02:24:24.738Z,58.6465
2019-04-23T02:26:38.476Z,58.1125
2019-04-23T02:27:54.414Z,58.1903
2019-04-23T02:30:15.529Z,58.4558
2019-04-23T02:34:51.571Z,58.2849
2019-04-23T02:35:55.771Z,58.4039
2019-04-23T02:37:03.852Z,58.2162
2019-04-23T02:39:00.967Z,56.6247
2019-04-23T02:40:35.375Z,56.5423
2019-04-23T02:41:41.594Z,56.1563
2019-04-23T02:42:55.880Z,56.1425
2019-04-23T02:43:35.508Z,56.5042
2019-04-23T02:44:56.285Z,56.5774
2019-04-23T02:47:29.711Z,56.7117
2019-04-23T02:49:26.955Z,57.3190
2019-04-23T02:52:48.811Z,57.4029
2019-04-23T02:54:04.644Z,57.1603
2019-04-23T02:55:08.723Z,56.9207
2019-04-23T02:56:28.878Z,57.4334
2019-04-23T02:57:20.134Z,57.0123
2019-04-23T02:59:53.785Z,57.2366
2019-04-23T03:01:06.418Z,57.2427
2019-04-23T03:05:38.038Z,56.5271
2019-04-23T03:07:41.007Z,56.5499
2019-04-23T03:09:51.725Z,56.4126
2019-04-23T03:11:20.714Z,56.4767
2019-04-23T03:12:24.888Z,56.0479
2019-04-23T03:16:48.191Z,55.3140
2019-04-23T03:17:49.276Z,55.4208
2019-04-23T03:18:57.597Z,55.7046
2019-04-23T03:20:11.189Z,55.5428
2019-04-23T03:22:14.738Z,55.0362
2019-04-23T03:23:34.530Z,54.3450
2019-04-23T03:24:45.833Z,53.9834
2019-04-23T03:25:35.869Z,53.8857
2019-04-23T03:29:15.858Z,53.6171
2019-04-23T03:32:48.379Z,51.9875
2019-04-23T03:34:42.467Z,52.0195
2019-04-23T03:38:18.878Z,52.3308
2019-04-23T03:39:18.717Z,52.6009
2019-04-23T03:40:43.137Z,52.7230
2019-04-23T03:42:43.102Z,52.2835
2019-04-23T03:47:18.543Z,52.0790
2019-04-23T03:48:28.672Z,52.4041
2019-04-23T03:49:32.853Z,52.7108
2019-04-23T03:50:36.015Z,52.5307
2019-04-23T03:51:52.269Z,52.1889
2019-04-23T03:52:44.674Z,52.1553
2019-04-23T03:55:10.264Z,52.4498
2019-04-23T03:56:26.552Z,52.8756
2019-04-23T03:57:26.945Z,52.8847
2019-04-23T04:01:07.179Z,52.3156
2019-04-23T04:03:27.016Z,52.7367
2019-04-23T04:05:31.406Z,52.9564
2019-04-23T04:08:50.727Z,53.3181
2019-04-23T04:11:25.708Z,53.7820
2019-04-23T04:12:19.139Z,53.4874
2019-04-23T04:13:22.222Z,53.7163
2019-04-23T04:15:53.327Z,54.1833
2019-04-23T04:16:51.069Z,54.1695
2019-04-23T04:18:03.849Z,53.9742
2019-04-23T04:21:28.138Z,54.5098
2019-04-23T04:22:37.490Z,54.2245
2019-04-23T04:23:37.767Z,53.9361
2019-04-23T04:25:08.803Z,54.2351
2019-04-23T04:25:47.681Z,54.1695
2019-04-23T04:29:11.664Z,54.4305
2019-04-23T04:30:21.578Z,54.8119
2019-04-23T04:31:37.438Z,53.6538
2019-04-23T04:32:42.814Z,53.4569
2019-04-23T04:35:14.130Z,53.8491
2019-04-23T04:36:09.496Z,53.8140
2019-04-23T04:38:34.883Z,53.9040
2019-04-23T04:39:26.636Z,53.9879
2019-04-23T04:40:45.670Z,54.4533
2019-04-23T04:41:44.479Z,54.4945
2019-04-23T04:43:02.015Z,54.5266
2019-04-23T04:44:04.909Z,54.9401
2019-04-23T04:45:13.631Z,54.9722
2019-04-23T04:46:21.203Z,54.9859
2019-04-23T04:47:33.888Z,55.1171
2019-04-23T04:49:48.611Z,54.9340
2019-04-23T04:52:03.167Z,55.4925
2019-04-23T04:53:09.892Z,55.3613
2019-04-23T04:54:21.516Z,55.5581
2019-04-23T04:55:21.515Z,55.2361
2019-04-23T04:57:37.241Z,55.2270
2019-04-23T05:05:55.531Z,55.6954
2019-04-23T05:06:46.484Z,55.9411
2019-04-23T05:08:56.614Z,55.7214
2019-04-23T05:14:35.415Z,55.4467
2019-04-23T05:15:39.075Z,55.6161
2019-04-23T05:18:00.307Z,55.8694
2019-04-23T05:22:26.768Z,57.0184
2019-04-23T05:23:33.438Z,57.5448
2019-04-23T05:25:44.742Z,58.2940
2019-04-23T05:26:53.369Z,57.9385
2019-04-23T05:30:22.610Z,57.4212
2019-04-23T05:31:23.261Z,57.6181
2019-04-23T05:32:36.737Z,57.6318
2019-04-23T05:33:46.471Z,57.0306
2019-04-23T05:34:48.321Z,57.1420
2019-04-23T05:36:22.849Z,56.9116
2019-04-23T05:37:06.463Z,57.3205
2019-04-23T05:38:29.200Z,57.8286
2019-04-23T05:39:31.314Z,57.6944
2019-04-23T05:40:37.953Z,57.9644
2019-04-23T05:42:46.842Z,57.8683
2019-04-23T05:45:00.595Z,57.0214
2019-04-23T05:46:17.957Z,57.0733
2019-04-23T05:47:25.473Z,57.1130
2019-04-23T05:48:23.370Z,57.2427
2019-04-23T05:49:31.664Z,57.2458
2019-04-23T05:50:50.577Z,56.6094
2019-04-23T05:51:57.680Z,56.4263
2019-04-23T05:53:05.915Z,56.7834
2019-04-23T05:54:09.118Z,56.8292
2019-04-23T05:55:13.658Z,56.5286
2019-04-23T05:56:24.269Z,56.1669
2019-04-23T05:57:40.372Z,55.8053
2019-04-23T05:58:43.706Z,56.0159
2019-04-23T05:59:51.654Z,55.9426
2019-04-23T06:01:11.430Z,55.7641
2019-04-23T06:02:18.247Z,55.5932
2019-04-23T06:03:16.003Z,55.4192
2019-04-23T06:04:27.099Z,55.4055
2019-04-23T06:05:34.266Z,55.6359
2019-04-23T06:07:49.417Z,54.6838
2019-04-23T06:11:16.989Z,54.9676
2019-04-23T06:12:13.568Z,55.0484
2019-04-23T06:13:26.345Z,55.2468
2019-04-23T06:14:41.030Z,55.2102
2019-04-23T06:15:57.783Z,55.0912
2019-04-23T06:17:02.133Z,55.2544
2019-04-23T06:18:02.245Z,55.1812
2019-04-23T06:20:24.978Z,55.4345
2019-04-23T06:21:25.264Z,55.4986
2019-04-23T06:22:35.211Z,55.0851
2019-04-23T06:23:43.677Z,54.4274
2019-04-23T06:24:45.153Z,53.5790
2019-04-23T06:27:06.747Z,53.0480
2019-04-23T06:28:14.518Z,53.2036
2019-04-23T06:30:34.251Z,52.8466
2019-04-23T06:31:40.879Z,52.5582
2019-04-23T06:32:44.763Z,52.6696
2019-04-23T06:33:54.541Z,53.1212
2019-04-23T06:34:58.167Z,52.3934
2019-04-23T06:37:22.172Z,51.9509
2019-04-23T06:38:46.098Z,52.2255
2019-04-23T06:39:39.639Z,52.3293
2019-04-23T06:40:44.949Z,52.8511
2019-04-23T06:41:52.776Z,53.3288
2019-04-23T06:43:01.274Z,53.9651
2019-04-23T06:45:06.263Z,54.6136
2019-04-23T06:46:20.142Z,55.0164
2019-04-23T06:47:27.739Z,52.9122
2019-04-23T06:48:34.870Z,53.2326
2019-04-23T06:49:44.172Z,52.7230
2019-04-23T06:50:59.265Z,52.7871
2019-04-23T06:53:08.129Z,53.3333
2019-04-23T06:54:19.068Z,53.1121
2019-04-23T06:55:25.499Z,53.1167
2019-04-23T06:56:37.491Z,53.9040
2019-04-23T06:57:38.185Z,53.5393
2019-04-23T06:58:43.259Z,53.2326
2019-04-23T06:59:59.195Z,53.1090
2019-04-23T07:02:17.084Z,52.2927
2019-04-23T07:03:23.277Z,51.8181
2019-04-23T07:05:40.938Z,51.9600
2019-04-23T07:06:47.187Z,52.4071
2019-04-23T07:07:58.369Z,52.6726
2019-04-23T07:09:07.867Z,52.0790
2019-04-23T07:10:03.945Z,52.4910
2019-04-23T07:11:23.615Z,51.5984
2019-04-23T07:12:21.977Z,51.1528
2019-04-23T07:13:45.001Z,50.6828
2019-04-23T07:14:47.678Z,50.6905
2019-04-23T07:16:52.559Z,51.4977
2019-04-23T07:18:04.047Z,51.3237
2019-04-23T07:19:18.576Z,50.9239
2019-04-23T07:20:21.565Z,51.2596
2019-04-23T07:22:46.879Z,51.4412
2019-04-23T07:23:53.884Z,51.0491
2019-04-23T07:24:57.590Z,51.4733
2019-04-23T07:26:09.308Z,51.2993
2019-04-23T07:27:03.270Z,51.5465
2019-04-23T07:28:18.020Z,51.5648
2019-04-23T07:29:25.343Z,51.5648
2019-04-23T07:31:46.040Z,50.7546
2019-04-23T07:32:49.598Z,50.9941
2019-04-23T07:34:01.061Z,51.1589
2019-04-23T07:35:10.443Z,51.2947
2019-04-23T07:36:17.566Z,51.4229
2019-04-23T07:37:19.004Z,51.0613
2019-04-23T07:38:41.711Z,50.5303
2019-04-23T07:39:45.653Z,50.9346
2019-04-23T07:40:41.126Z,50.3105
2019-04-23T07:41:56.815Z,50.7698
2019-04-23T07:43:03.442Z,50.9651
2019-04-23T07:44:12.822Z,50.7362
2019-04-23T07:45:19.320Z,51.1849
2019-04-23T07:46:55.679Z,51.5190
2019-04-23T07:47:33.704Z,51.1757
2019-04-23T07:48:34.401Z,51.0750
2019-04-23T07:50:01.844Z,50.9163
2019-04-23T07:50:55.630Z,50.9667
2019-04-23T07:52:11.004Z,50.9880
2019-04-23T07:54:22.755Z,51.2825
2019-04-23T07:55:34.564Z,51.0536
2019-04-23T07:56:37.288Z,51.2490
2019-04-23T07:57:52.124Z,50.8888
2019-04-23T07:58:44.765Z,51.0170
2019-04-23T08:00:02.417Z,50.0542
2019-04-23T08:01:06.931Z,50.0542
2019-04-23T08:02:23.473Z,49.9535
2019-04-23T08:03:27.359Z,49.5155
2019-04-23T08:04:39.441Z,50.0008
2019-04-23T08:05:38.693Z,50.8507
2019-04-23T08:06:46.434Z,50.1961
2019-04-23T08:07:58.779Z,51.4748
2019-04-23T08:09:02.344Z,50.8522
2019-04-23T08:10:18.914Z,50.1427
2019-04-23T08:11:33.210Z,49.7475
2019-04-23T08:12:31.535Z,49.8436
2019-04-23T08:13:42.042Z,49.6620
2019-04-23T08:14:48.146Z,49.1157
2019-04-23T08:15:53.932Z,49.2546
2019-04-23T08:17:02.077Z,49.8039
2019-04-23T08:18:13.689Z,49.5048
2019-04-23T08:19:15.445Z,49.0242
2019-04-23T08:20:32.286Z,49.4362
2019-04-23T08:22:40.643Z,48.6870
2019-04-23T08:23:49.120Z,48.8884
2019-04-23T08:25:12.833Z,49.0578
2019-04-23T08:26:13.828Z,49.1585
2019-04-23T08:27:12.922Z,48.7922
2019-04-23T08:28:34.032Z,49.1035
2019-04-23T08:30:33.305Z,48.5451
2019-04-23T08:31:52.775Z,48.4947
2019-04-23T08:32:52.136Z,48.3803
2019-04-23T08:34:05.758Z,48.1010
2019-04-23T08:35:06.377Z,47.5044
2019-04-23T08:36:23.746Z,48.0720
2019-04-23T08:37:36.034Z,47.8157
2019-04-23T08:40:57.533Z,49.0532
2019-04-23T08:43:07.531Z,47.8523
2019-04-23T08:44:23.977Z,47.5380
2019-04-23T08:46:33.049Z,47.5502
2019-04-23T08:47:37.749Z,47.5105
2019-04-23T08:50:09.591Z,46.7735
2019-04-23T08:50:57.917Z,46.5614
2019-04-23T08:52:12.178Z,47.5273
2019-04-23T08:53:29.659Z,46.0533
2019-04-23T08:54:37.060Z,45.8610
2019-04-23T08:56:50.025Z,44.7578
2019-04-23T08:57:45.352Z,44.2466
2019-04-23T08:58:59.330Z,43.5874
2019-04-23T09:00:04.015Z,42.8046
2019-04-23T09:01:10.668Z,43.1968
2019-04-23T09:02:30.568Z,44.7501
2019-04-23T09:04:42.069Z,45.2796
2019-04-23T09:05:52.670Z,45.0599
2019-04-23T09:07:00.161Z,44.8310
2019-04-23T09:08:07.195Z,44.6952
2019-04-23T09:09:16.054Z,42.3636
2019-04-23T09:10:20.841Z,40.8911
2019-04-23T09:11:41.054Z,40.6561
2019-04-23T09:12:35.112Z,38.9776
2019-04-23T09:14:51.236Z,38.9960
2019-04-23T09:15:55.889Z,39.5224
2019-04-23T09:17:06.881Z,39.0829
2019-04-23T09:18:16.036Z,38.7839
2019-04-23T09:19:23.284Z,37.0153
2019-04-23T09:21:32.720Z,37.0672
2019-04-23T09:24:03.844Z,38.3444
2019-04-23T09:25:06.024Z,38.7625
2019-04-23T09:26:02.254Z,38.6557
2019-04-23T09:27:22.169Z,39.5956
2019-04-23T09:28:38.591Z,39.9802
2019-04-23T09:29:42.449Z,40.1175
2019-04-23T09:30:42.926Z,40.4410
2019-04-23T09:33:02.421Z,40.9552
2019-04-23T09:34:08.004Z,40.8179
2019-04-23T09:35:20.194Z,40.8301
2019-04-23T09:36:22.372Z,40.6714
2019-04-23T09:38:31.892Z,40.2594
2019-04-23T09:41:08.720Z,40.0107
2019-04-23T09:42:02.328Z,40.2274
2019-04-23T09:45:28.086Z,40.4822
2019-04-23T09:46:32.596Z,39.8566
2019-04-23T09:47:48.296Z,39.9893
2019-04-23T09:48:54.693Z,40.0305
2019-04-23T09:50:06.461Z,40.0854
2019-04-23T09:51:02.450Z,40.0427
2019-04-23T09:52:14.611Z,40.0717
2019-04-23T09:53:24.762Z,40.3998
2019-04-23T09:54:37.874Z,40.2960
2019-04-23T09:58:00.630Z,40.2991
2019-04-23T09:59:08.836Z,39.7955
2019-04-23T10:00:10.752Z,39.7238
2019-04-23T10:01:20.500Z,39.2462
2019-04-23T10:02:17.510Z,39.6170
2019-04-23T10:03:21.144Z,39.0951
2019-04-23T10:04:28.155Z,39.3927
2019-04-23T10:05:32.585Z,38.9578
2019-04-23T10:06:34.553Z,39.2294
2019-04-23T10:07:48.630Z,38.7930
2019-04-23T10:08:52.249Z,38.0789
2019-04-23T10:09:53.532Z,38.8312
2019-04-23T10:10:57.475Z,38.3505
2019-04-23T10:12:00.992Z,38.5885
2019-04-23T10:13:04.377Z,37.8195
2019-04-23T10:14:08.281Z,38.8067
2019-04-23T10:15:21.522Z,38.6191
2019-04-23T10:16:21.439Z,38.4695
2019-04-23T10:17:28.490Z,38.5229
2019-04-23T10:18:31.311Z,37.9370
2019-04-23T10:19:35.037Z,38.0194
2019-04-23T10:20:38.588Z,38.2483
2019-04-23T10:21:43.653Z,38.5290
2019-04-23T10:22:48.240Z,37.5448
2019-04-23T10:23:51.653Z,38.4588
2019-04-23T10:24:55.395Z,38.0941
2019-04-23T10:25:58.362Z,37.7783
2019-04-23T10:27:01.986Z,37.3098
2019-04-23T10:28:08.634Z,36.9924
2019-04-23T10:29:14.049Z,36.2753
2019-04-23T10:30:17.749Z,36.5621
2019-04-23T10:31:22.767Z,37.3602
2019-04-23T10:32:27.324Z,37.3190
2019-04-23T10:33:31.682Z,37.5479
2019-04-23T10:34:47.533Z,37.0611
2019-04-23T10:35:51.521Z,36.4080
2019-04-23T10:36:51.571Z,36.5408
2019-04-23T10:38:03.722Z,36.0143
2019-04-23T10:39:10.630Z,35.3643
2019-04-23T10:40:15.383Z,34.2199
2019-04-23T10:41:20.175Z,34.2336
2019-04-23T10:42:24.701Z,32.9473
2019-04-23T10:43:30.775Z,32.3980
2019-04-23T10:44:35.371Z,31.9814
2019-04-23T10:45:53.874Z,32.4193
2019-04-23T10:47:12.237Z,32.4849
2019-04-23T10:48:31.500Z,33.2036
2019-04-23T10:50:46.166Z,32.8817
2019-04-23T10:51:55.052Z,34.0002
2019-04-23T10:53:05.120Z,33.0053
2019-04-23T10:55:07.933Z,33.1746
2019-04-23T10:56:22.352Z,32.9595
2019-04-23T10:57:23.183Z,31.2474
2019-04-23T10:58:35.286Z,32.0302
2019-04-23T11:00:55.664Z,32.0089
2019-04-23T11:02:15.623Z,32.6574
2019-04-23T11:03:20.344Z,31.8608
2019-04-23T11:04:32.858Z,30.8141
2019-04-23T11:05:30.392Z,31.1559
2019-04-23T11:06:47.171Z,31.4214
2019-04-23T11:08:45.540Z,32.7306
2019-04-23T11:09:58.702Z,32.3735
2019-04-23T11:11:07.952Z,32.8908
2019-04-23T11:12:23.413Z,31.9539
2019-04-23T11:13:25.669Z,31.2245
2019-04-23T11:14:37.718Z,29.8207
2019-04-23T11:19:10.552Z,28.7129
2019-04-23T11:20:17.669Z,27.7333
2019-04-23T11:21:20.751Z,27.8569
2019-04-23T11:23:30.909Z,28.0262
2019-04-23T11:24:42.103Z,26.0334
2019-04-23T11:25:42.826Z,25.1774
2019-04-23T11:26:58.003Z,25.8228
2019-04-23T11:28:11.038Z,28.0079
2019-04-23T11:29:16.379Z,28.5710
2019-04-23T11:30:27.452Z,28.6793
2019-04-23T11:31:41.467Z,28.5389
2019-04-23T11:32:47.119Z,28.5603
2019-04-23T11:33:42.695Z,28.7175
2019-04-23T11:36:18.967Z,27.9301
2019-04-23T11:37:12.914Z,27.1321
2019-04-23T11:38:43.631Z,28.3864
2019-04-23T11:39:23.971Z,29.3675
2019-04-23T11:40:32.817Z,29.7185
2019-04-23T11:41:49.011Z,29.8390
2019-04-23T11:42:49.445Z,30.3181
2019-04-23T11:43:53.431Z,29.9947
2019-04-23T11:45:09.607Z,31.2306
2019-04-23T11:46:32.664Z,31.9265
2019-04-23T11:48:51.966Z,30.2266
2019-04-23T11:52:09.747Z,30.0801
2019-04-23T11:52:57.138Z,31.2291
2019-04-23T11:54:11.614Z,30.8278
2019-04-23T11:55:26.136Z,29.9718
2019-04-23T11:57:02.696Z,30.5882
2019-04-23T11:59:55.046Z,30.6905
2019-04-23T12:01:03.167Z,30.5974
2019-04-23T12:02:01.148Z,31.5785
2019-04-23T12:03:02.501Z,31.7601
2019-04-23T12:04:39.590Z,32.0089
2019-04-23T12:05:37.129Z,31.5908
2019-04-23T12:06:36.948Z,31.3909
2019-04-23T12:08:03.851Z,31.3481
2019-04-23T12:08:50.998Z,31.7876
2019-04-23T12:11:35.426Z,31.8029
2019-04-23T12:12:21.720Z,31.8837
2019-04-23T12:13:28.655Z,31.6976
2019-04-23T12:14:37.314Z,30.8965
2019-04-23T12:15:37.586Z,31.2352
2019-04-23T12:17:05.613Z,31.5724
2019-04-23T12:18:05.357Z,31.2673
2019-04-23T12:19:28.403Z,31.0872
2019-04-23T12:20:13.536Z,29.9077
2019-04-23T12:21:22.115Z,29.8482
2019-04-23T12:22:33.412Z,29.8070
2019-04-23T12:23:48.559Z,29.4804
2019-04-23T12:25:58.613Z,28.2002
2019-04-23T12:27:00.698Z,27.6036
2019-04-23T12:28:06.603Z,27.8920
2019-04-23T12:29:23.735Z,27.3945
2019-04-23T12:30:30.152Z,27.1458
2019-04-23T12:31:34.836Z,28.2445
2019-04-23T12:33:53.599Z,28.8258
2019-04-23T12:36:05.317Z,27.2648
2019-04-23T12:37:19.632Z,28.1071
2019-04-23T12:38:31.234Z,27.0726
2019-04-23T12:39:45.451Z,27.1321
2019-04-23T12:40:37.843Z,26.2852
2019-04-23T12:41:43.306Z,26.8528
2019-04-23T12:43:57.945Z,27.4662
2019-04-23T12:45:16.976Z,27.3518
2019-04-23T12:46:17.693Z,25.5528
2019-04-23T12:47:37.960Z,26.1906
2019-04-23T12:52:02.448Z,24.0665
2019-04-23T12:53:27.064Z,25.7633
2019-04-23T12:54:20.791Z,27.0878
2019-04-23T12:55:36.215Z,24.3366
2019-04-23T12:56:41.588Z,25.7496
2019-04-23T12:58:34.064Z,27.1687
2019-04-23T12:59:50.071Z,26.6514
2019-04-23T13:01:07.216Z,26.5202
2019-04-23T13:02:16.401Z,29.3126
2019-04-23T13:03:21.593Z,26.3401
2019-04-23T13:04:24.616Z,26.6941
2019-04-23T13:06:41.030Z,25.7649
2019-04-23T13:08:54.577Z,27.2602
2019-04-23T13:11:16.265Z,27.0832
2019-04-23T13:12:32.625Z,25.0233
2019-04-23T13:13:28.575Z,25.0080
2019-04-23T13:14:44.062Z,26.9490
2019-04-23T13:15:40.685Z,26.7292
2019-04-23T13:17:02.054Z,27.5181
2019-04-23T13:19:13.922Z,28.2277
2019-04-23T13:21:46.246Z,27.0085
2019-04-23T13:22:45.886Z,27.1366
2019-04-23T13:24:49.009Z,25.7282
2019-04-23T13:27:15.209Z,26.4225
2019-04-23T13:28:27.692Z,24.7471
2019-04-23T13:29:32.438Z,25.9098
2019-04-23T13:30:44.741Z,27.0039
2019-04-23T13:31:28.968Z,26.6941
2019-04-23T13:33:51.509Z,27.9103
2019-04-23T13:35:15.052Z,27.0130
2019-04-23T13:37:26.225Z,26.1158
2019-04-23T13:38:35.025Z,25.6901
2019-04-23T13:39:35.318Z,26.0899
2019-04-23T13:41:47.770Z,24.9317
2019-04-23T13:43:01.145Z,25.1423
2019-04-23T13:43:53.013Z,25.7237
2019-04-23T13:45:33.346Z,27.1778
2019-04-23T13:46:17.792Z,25.9190
2019-04-23T13:47:38.495Z,26.0761
2019-04-23T13:48:35.950Z,25.0538
2019-04-23T13:49:52.738Z,25.0401
2019-04-23T13:52:06.190Z,25.8183
2019-04-23T13:53:28.979Z,25.8686
2019-04-23T13:54:27.761Z,25.1514
2019-04-23T13:55:21.750Z,24.9027
2019-04-23T13:58:05.050Z,26.0670
2019-04-23T13:58:51.609Z,25.5863
2019-04-23T13:59:56.248Z,25.8976
2019-04-23T14:01:25.931Z,26.1997
2019-04-23T14:02:24.063Z,25.8106
2019-04-23T14:03:30.320Z,26.5431
2019-04-23T14:04:43.174Z,25.6809
2019-04-23T14:06:47.513Z,26.5736
2019-04-23T14:07:54.779Z,24.3732
2019-04-23T14:08:59.689Z,24.3351
2019-04-23T14:12:35.183Z,25.0904
2019-04-23T14:14:47.571Z,25.9754
2019-04-23T14:15:54.091Z,24.2313
2019-04-23T14:17:04.532Z,24.1062
2019-04-23T14:18:48.953Z,24.5457
2019-04-23T14:19:06.897Z,25.2613
2019-04-23T14:20:21.598Z,24.3458
2019-04-23T14:21:39.166Z,24.5014
2019-04-23T14:24:08.748Z,25.7176
2019-04-23T14:25:04.634Z,25.2735
2019-04-23T14:27:17.908Z,25.1377
2019-04-23T14:28:22.161Z,26.2028
2019-04-23T14:29:30.607Z,25.0172
2019-04-23T14:30:38.993Z,25.5314
2019-04-23T14:32:54.303Z,25.9144
2019-04-23T14:35:21.596Z,24.7791
2019-04-23T14:36:17.670Z,24.5151
2019-04-23T14:37:17.230Z,24.1398
2019-04-23T14:39:40.999Z,23.9841
2019-04-23T14:41:53.680Z,24.0925
2019-04-23T14:43:08.844Z,24.4648
2019-04-23T14:44:11.055Z,24.3183
2019-04-23T14:45:29.692Z,25.5756
2019-04-23T14:47:38.132Z,26.8666
2019-04-23T14:48:47.975Z,26.7201
2019-04-23T14:49:59.431Z,27.5486
2019-04-23T14:50:56.913Z,27.4296
2019-04-23T14:52:09.281Z,27.3121
2019-04-23T14:54:35.831Z,27.5807
2019-04-23T14:56:38.378Z,27.0146
2019-04-23T14:57:52.840Z,27.4266
2019-04-23T14:59:04.720Z,26.7979
2019-04-23T15:00:03.385Z,27.1092
2019-04-23T15:01:22.236Z,27.4586
2019-04-23T15:02:22.928Z,27.3747
2019-04-23T15:03:32.541Z,27.2328
2019-04-23T15:04:34.034Z,27.4495
2019-04-23T15:05:52.767Z,27.4632
2019-04-23T15:08:02.145Z,27.4159
2019-04-23T15:10:18.563Z,27.7882
2019-04-23T15:13:36.849Z,27.4800
2019-04-23T15:14:56.307Z,27.3808
2019-04-23T15:16:03.128Z,27.8279
2019-04-23T15:17:00.461Z,27.1275
2019-04-23T15:18:14.109Z,27.6081
2019-04-23T15:20:23.115Z,27.1702
2019-04-23T15:21:45.273Z,28.7678
2019-04-23T15:22:54.453Z,28.7617
2019-04-23T15:25:09.377Z,26.6148
2019-04-23T15:26:49.495Z,26.8589
2019-04-23T15:28:07.604Z,26.9551
2019-04-23T15:29:12.885Z,27.2053
2019-04-23T15:30:35.555Z,27.6051
2019-04-23T15:31:52.422Z,27.5990
2019-04-23T15:33:04.207Z,27.2602
2019-04-23T15:34:09.288Z,28.0034
2019-04-23T15:35:23.437Z,26.8269
2019-04-23T15:38:55.857Z,27.6081
2019-04-23T15:40:53.352Z,27.9164
2019-04-23T15:43:17.236Z,27.6127
2019-04-23T15:45:21.007Z,27.7653
2019-04-23T15:46:32.684Z,28.4016
2019-04-23T15:47:40.489Z,28.1498
2019-04-23T15:48:58.125Z,28.1666
2019-04-23T15:50:03.598Z,28.2414
2019-04-23T15:51:04.378Z,28.0659
2019-04-23T15:53:24.915Z,28.1865
2019-04-23T15:54:25.415Z,28.4138
2019-04-23T15:55:28.209Z,28.4550
2019-04-23T15:56:41.017Z,28.3558
2019-04-23T15:59:58.702Z,28.4428
2019-04-23T16:01:15.557Z,28.2002
2019-04-23T16:01:52.332Z,28.1453
2019-04-23T16:02:55.306Z,28.4794
2019-04-23T16:03:59.127Z,28.0491
2019-04-23T16:05:03.652Z,27.7974
2019-04-23T16:06:10.316Z,27.9973
2019-04-23T16:07:32.581Z,27.6631
2019-04-23T16:08:58.945Z,28.1941
2019-04-23T16:10:04.242Z,27.7836
2019-04-23T16:11:15.708Z,27.9606
2019-04-23T16:12:03.419Z,28.2002
2019-04-23T16:13:31.145Z,28.1895
2019-04-23T16:14:35.362Z,27.9423
2019-04-23T16:15:45.402Z,27.8843
2019-04-23T16:18:06.552Z,27.6722
2019-04-23T16:19:07.620Z,28.4871
2019-04-23T16:20:22.193Z,27.5257
2019-04-23T16:22:24.861Z,27.7790
2019-04-23T16:23:38.270Z,27.9942
2019-04-23T16:24:52.254Z,27.8889
2019-04-23T16:25:49.797Z,28.2551
2019-04-23T16:27:04.435Z,27.8889
2019-04-23T16:28:11.543Z,27.7790
2019-04-23T16:30:36.811Z,28.3787
2019-04-23T16:31:38.046Z,28.1865
2019-04-23T16:32:38.046Z,28.4886
2019-04-23T16:33:47.947Z,29.4804
2019-04-23T16:35:06.757Z,28.2399
2019-04-23T16:36:19.208Z,28.7541
2019-04-23T16:37:15.436Z,28.5298
2019-04-23T16:39:24.161Z,29.2790
2019-04-23T16:41:51.649Z,30.2174
2019-04-23T16:42:56.684Z,28.8258
2019-04-23T16:44:09.506Z,29.2424
2019-04-23T16:45:14.976Z,28.7861
2019-04-23T16:46:21.340Z,28.7755
2019-04-23T16:47:24.223Z,28.8548
2019-04-23T16:48:44.093Z,28.5115
2019-04-23T16:49:48.020Z,29.1371
2019-04-23T16:51:54.184Z,30.0114
2019-04-23T16:53:11.568Z,27.7363
2019-04-23T16:54:14.124Z,27.8981
2019-04-23T16:55:19.963Z,28.2185
2019-04-23T17:00:08.190Z,28.2002
2019-04-23T17:01:07.262Z,28.4504
2019-04-23T17:02:17.617Z,27.8935
2019-04-23T17:03:28.954Z,28.2139
2019-04-23T17:04:24.310Z,27.8965
2019-04-23T17:05:33.327Z,28.8777
2019-04-23T17:06:35.812Z,27.8004
2019-04-23T17:08:08.365Z,28.7022